sensor_id;sensor_type;location;lat;lon;timestamp;P1;durP1;ratioP1;P2;durP2;ratioP2
13795;SDS011;40911;51.552;9.874;2023-07-29T00:01:40;2.47;;;2.10;;
13795;SDS011;40911;51.552;9.874;2023-07-29T00:04:02;4.45;;;2.00;;
13795;SDS011;40911;51.552;9.874;2023-07-29T00:06:25;2.80;;;1.58;;
13795;SDS011;40911;51.552;9.874;2023-07-29T00:08:48;3.13;;;1.50;;
13795;SDS011;40911;51.552;9.874;2023-07-29T00:11:10;3.25;;;1.55;;
13795;SDS011;40911;51.552;9.874;2023-07-29T00:15:53;1.98;;;1.42;;
13795;SDS011;40911;51.552;9.874;2023-07-29T00:18:16;1.60;;;1.45;;
13795;SDS011;40911;51.552;9.874;2023-07-29T00:20:37;2.35;;;1.45;;
13795;SDS011;40911;51.552;9.874;2023-07-29T00:22:59;2.05;;;1.45;;
13795;SDS011;40911;51.552;9.874;2023-07-29T00:25:24;2.53;;;1.60;;
13795;SDS011;40911;51.552;9.874;2023-07-29T00:27:45;4.13;;;1.55;;
13795;SDS011;40911;51.552;9.874;2023-07-29T00:30:07;1.58;;;1.48;;
13795;SDS011;40911;51.552;9.874;2023-07-29T00:32:29;2.05;;;1.35;;
13795;SDS011;40911;51.552;9.874;2023-07-29T00:34:51;3.53;;;1.60;;
13795;SDS011;40911;51.552;9.874;2023-07-29T00:39:34;1.50;;;1.40;;
13795;SDS011;40911;51.552;9.874;2023-07-29T00:41:58;4.50;;;1.65;;
13795;SDS011;40911;51.552;9.874;2023-07-29T00:44:20;3.08;;;1.30;;
13795;SDS011;40911;51.552;9.874;2023-07-29T00:46:42;2.20;;;1.50;;
13795;SDS011;40911;51.552;9.874;2023-07-29T00:49:05;1.45;;;1.33;;
13795;SDS011;40911;51.552;9.874;2023-07-29T00:51:27;1.40;;;1.30;;
13795;SDS011;40911;51.552;9.874;2023-07-29T00:53:48;2.42;;;1.48;;
13795;SDS011;40911;51.552;9.874;2023-07-29T00:58:33;2.53;;;1.70;;
13795;SDS011;40911;51.552;9.874;2023-07-29T01:00:55;3.30;;;1.70;;
13795;SDS011;40911;51.552;9.874;2023-07-29T01:03:17;1.60;;;1.50;;
13795;SDS011;40911;51.552;9.874;2023-07-29T01:08:06;2.70;;;1.70;;
13795;SDS011;40911;51.552;9.874;2023-07-29T01:10:39;2.42;;;1.70;;
13795;SDS011;40911;51.552;9.874;2023-07-29T01:13:09;2.28;;;1.60;;
13795;SDS011;40911;51.552;9.874;2023-07-29T01:15:38;3.03;;;1.90;;
13795;SDS011;40911;51.552;9.874;2023-07-29T01:18:05;3.80;;;1.83;;
13795;SDS011;40911;51.552;9.874;2023-07-29T01:20:29;3.60;;;2.10;;
13795;SDS011;40911;51.552;9.874;2023-07-29T01:22:54;2.10;;;1.90;;
13795;SDS011;40911;51.552;9.874;2023-07-29T01:25:17;4.45;;;2.20;;
13795;SDS011;40911;51.552;9.874;2023-07-29T01:27:39;4.90;;;2.00;;
13795;SDS011;40911;51.552;9.874;2023-07-29T01:30:01;2.10;;;1.90;;
13795;SDS011;40911;51.552;9.874;2023-07-29T01:32:25;3.38;;;2.05;;
13795;SDS011;40911;51.552;9.874;2023-07-29T01:34:52;5.03;;;2.35;;
13795;SDS011;40911;51.552;9.874;2023-07-29T01:37:19;2.10;;;1.90;;
13795;SDS011;40911;51.552;9.874;2023-07-29T01:39:43;2.88;;;2.20;;
13795;SDS011;40911;51.552;9.874;2023-07-29T01:42:08;4.10;;;1.92;;
13795;SDS011;40911;51.552;9.874;2023-07-29T01:44:29;3.30;;;2.05;;
13795;SDS011;40911;51.552;9.874;2023-07-29T01:46:51;2.10;;;1.90;;
13795;SDS011;40911;51.552;9.874;2023-07-29T01:51:35;4.65;;;2.10;;
13795;SDS011;40911;51.552;9.874;2023-07-29T01:53:56;3.97;;;1.90;;
13795;SDS011;40911;51.552;9.874;2023-07-29T01:56:19;3.00;;;2.00;;
13795;SDS011;40911;51.552;9.874;2023-07-29T02:01:04;5.32;;;2.28;;
13795;SDS011;40911;51.552;9.874;2023-07-29T02:05:48;3.03;;;2.13;;
13795;SDS011;40911;51.552;9.874;2023-07-29T02:10:31;5.60;;;2.20;;
13795;SDS011;40911;51.552;9.874;2023-07-29T02:12:53;6.70;;;2.85;;
13795;SDS011;40911;51.552;9.874;2023-07-29T02:15:16;3.72;;;2.38;;
13795;SDS011;40911;51.552;9.874;2023-07-29T02:17:38;4.35;;;2.10;;
13795;SDS011;40911;51.552;9.874;2023-07-29T02:20:03;4.25;;;2.15;;
13795;SDS011;40911;51.552;9.874;2023-07-29T02:22:26;6.30;;;2.00;;
13795;SDS011;40911;51.552;9.874;2023-07-29T02:24:47;5.90;;;2.30;;
13795;SDS011;40911;51.552;9.874;2023-07-29T02:27:09;3.60;;;2.50;;
13795;SDS011;40911;51.552;9.874;2023-07-29T02:29:31;4.25;;;2.60;;
13795;SDS011;40911;51.552;9.874;2023-07-29T02:34:16;5.53;;;2.50;;
13795;SDS011;40911;51.552;9.874;2023-07-29T02:36:37;2.85;;;2.15;;
13795;SDS011;40911;51.552;9.874;2023-07-29T02:38:59;5.28;;;2.20;;
13795;SDS011;40911;51.552;9.874;2023-07-29T02:41:21;4.30;;;2.25;;
13795;SDS011;40911;51.552;9.874;2023-07-29T02:43:43;4.18;;;2.30;;
13795;SDS011;40911;51.552;9.874;2023-07-29T02:46:09;3.47;;;2.10;;
13795;SDS011;40911;51.552;9.874;2023-07-29T02:48:32;2.13;;;1.95;;
13795;SDS011;40911;51.552;9.874;2023-07-29T02:50:54;2.15;;;1.83;;
13795;SDS011;40911;51.552;9.874;2023-07-29T02:53:16;3.03;;;2.35;;
13795;SDS011;40911;51.552;9.874;2023-07-29T02:55:39;2.00;;;1.80;;
13795;SDS011;40911;51.552;9.874;2023-07-29T02:58:00;3.25;;;2.10;;
13795;SDS011;40911;51.552;9.874;2023-07-29T03:00:22;2.60;;;1.90;;
13795;SDS011;40911;51.552;9.874;2023-07-29T03:02:44;2.42;;;2.22;;
13795;SDS011;40911;51.552;9.874;2023-07-29T03:05:08;2.92;;;2.15;;
13795;SDS011;40911;51.552;9.874;2023-07-29T03:07:30;2.10;;;1.95;;
13795;SDS011;40911;51.552;9.874;2023-07-29T03:09:51;3.60;;;2.10;;
13795;SDS011;40911;51.552;9.874;2023-07-29T03:12:13;2.75;;;2.00;;
13795;SDS011;40911;51.552;9.874;2023-07-29T03:14:35;2.17;;;1.98;;
13795;SDS011;40911;51.552;9.874;2023-07-29T03:16:56;3.00;;;1.70;;
13795;SDS011;40911;51.552;9.874;2023-07-29T03:19:19;2.17;;;2.03;;
13795;SDS011;40911;51.552;9.874;2023-07-29T03:21:42;3.67;;;2.25;;
13795;SDS011;40911;51.552;9.874;2023-07-29T03:24:04;7.45;;;2.35;;
13795;SDS011;40911;51.552;9.874;2023-07-29T03:26:27;2.53;;;2.20;;
13795;SDS011;40911;51.552;9.874;2023-07-29T03:28:48;3.15;;;2.20;;
13795;SDS011;40911;51.552;9.874;2023-07-29T03:33:32;4.22;;;2.20;;
13795;SDS011;40911;51.552;9.874;2023-07-29T03:35:53;5.65;;;2.08;;
13795;SDS011;40911;51.552;9.874;2023-07-29T03:38:17;7.43;;;2.65;;
13795;SDS011;40911;51.552;9.874;2023-07-29T03:40:38;4.88;;;2.15;;
13795;SDS011;40911;51.552;9.874;2023-07-29T03:43:00;4.22;;;2.40;;
13795;SDS011;40911;51.552;9.874;2023-07-29T03:45:22;9.73;;;2.45;;
13795;SDS011;40911;51.552;9.874;2023-07-29T03:47:44;5.85;;;2.22;;
13795;SDS011;40911;51.552;9.874;2023-07-29T03:50:06;2.63;;;1.92;;
13795;SDS011;40911;51.552;9.874;2023-07-29T03:52:28;4.30;;;2.20;;
13795;SDS011;40911;51.552;9.874;2023-07-29T03:54:51;4.30;;;2.30;;
13795;SDS011;40911;51.552;9.874;2023-07-29T03:57:13;6.40;;;2.35;;
13795;SDS011;40911;51.552;9.874;2023-07-29T03:59:34;4.10;;;2.30;;
13795;SDS011;40911;51.552;9.874;2023-07-29T04:01:56;4.07;;;2.63;;
13795;SDS011;40911;51.552;9.874;2023-07-29T04:04:18;3.30;;;2.30;;
13795;SDS011;40911;51.552;9.874;2023-07-29T04:06:39;2.72;;;2.30;;
13795;SDS011;40911;51.552;9.874;2023-07-29T04:09:01;5.75;;;2.60;;
13795;SDS011;40911;51.552;9.874;2023-07-29T04:11:24;8.52;;;2.33;;
13795;SDS011;40911;51.552;9.874;2023-07-29T04:13:47;6.60;;;2.58;;
13795;SDS011;40911;51.552;9.874;2023-07-29T04:16:09;5.18;;;2.67;;
13795;SDS011;40911;51.552;9.874;2023-07-29T04:18:31;7.45;;;2.42;;
13795;SDS011;40911;51.552;9.874;2023-07-29T04:20:52;2.65;;;2.45;;
13795;SDS011;40911;51.552;9.874;2023-07-29T04:23:14;7.55;;;2.28;;
13795;SDS011;40911;51.552;9.874;2023-07-29T04:25:36;5.60;;;2.38;;
13795;SDS011;40911;51.552;9.874;2023-07-29T04:27:59;8.52;;;2.25;;
13795;SDS011;40911;51.552;9.874;2023-07-29T04:30:23;5.82;;;2.80;;
13795;SDS011;40911;51.552;9.874;2023-07-29T04:32:45;4.22;;;2.15;;
13795;SDS011;40911;51.552;9.874;2023-07-29T04:35:08;3.42;;;2.78;;
13795;SDS011;40911;51.552;9.874;2023-07-29T04:37:30;2.58;;;2.38;;
13795;SDS011;40911;51.552;9.874;2023-07-29T04:39:51;7.10;;;2.78;;
13795;SDS011;40911;51.552;9.874;2023-07-29T04:42:13;3.33;;;2.60;;
13795;SDS011;40911;51.552;9.874;2023-07-29T04:44:36;3.58;;;2.60;;
13795;SDS011;40911;51.552;9.874;2023-07-29T04:46:58;4.75;;;2.30;;
13795;SDS011;40911;51.552;9.874;2023-07-29T04:49:20;4.13;;;2.30;;
13795;SDS011;40911;51.552;9.874;2023-07-29T04:51:42;3.83;;;2.45;;
13795;SDS011;40911;51.552;9.874;2023-07-29T04:56:25;2.65;;;2.45;;
13795;SDS011;40911;51.552;9.874;2023-07-29T04:58:47;4.05;;;2.35;;
13795;SDS011;40911;51.552;9.874;2023-07-29T05:01:10;7.57;;;2.55;;
13795;SDS011;40911;51.552;9.874;2023-07-29T05:03:32;6.03;;;2.50;;
13795;SDS011;40911;51.552;9.874;2023-07-29T05:05:53;4.35;;;2.50;;
13795;SDS011;40911;51.552;9.874;2023-07-29T05:08:16;3.28;;;2.40;;
13795;SDS011;40911;51.552;9.874;2023-07-29T05:10:38;3.92;;;2.20;;
13795;SDS011;40911;51.552;9.874;2023-07-29T05:12:59;5.43;;;2.10;;
13795;SDS011;40911;51.552;9.874;2023-07-29T05:15:21;2.78;;;2.13;;
13795;SDS011;40911;51.552;9.874;2023-07-29T05:17:44;3.22;;;2.30;;
13795;SDS011;40911;51.552;9.874;2023-07-29T05:20:06;2.58;;;2.13;;
13795;SDS011;40911;51.552;9.874;2023-07-29T05:22:29;3.50;;;2.33;;
13795;SDS011;40911;51.552;9.874;2023-07-29T05:24:51;3.35;;;2.45;;
13795;SDS011;40911;51.552;9.874;2023-07-29T05:27:12;3.70;;;2.30;;
13795;SDS011;40911;51.552;9.874;2023-07-29T05:29:34;2.60;;;2.22;;
13795;SDS011;40911;51.552;9.874;2023-07-29T05:31:56;2.28;;;2.10;;
13795;SDS011;40911;51.552;9.874;2023-07-29T05:34:19;3.72;;;2.20;;
13795;SDS011;40911;51.552;9.874;2023-07-29T05:36:41;4.30;;;2.38;;
13795;SDS011;40911;51.552;9.874;2023-07-29T05:39:03;5.68;;;2.65;;
13795;SDS011;40911;51.552;9.874;2023-07-29T05:41:24;2.35;;;2.15;;
13795;SDS011;40911;51.552;9.874;2023-07-29T05:43:48;4.10;;;2.20;;
13795;SDS011;40911;51.552;9.874;2023-07-29T05:46:10;2.65;;;2.45;;
13795;SDS011;40911;51.552;9.874;2023-07-29T05:48:31;2.85;;;2.60;;
13795;SDS011;40911;51.552;9.874;2023-07-29T05:50:55;3.15;;;2.70;;
13795;SDS011;40911;51.552;9.874;2023-07-29T05:53:17;3.30;;;2.40;;
13795;SDS011;40911;51.552;9.874;2023-07-29T05:55:39;2.60;;;2.30;;
13795;SDS011;40911;51.552;9.874;2023-07-29T05:58:01;3.05;;;2.40;;
13795;SDS011;40911;51.552;9.874;2023-07-29T06:00:23;3.15;;;2.75;;
13795;SDS011;40911;51.552;9.874;2023-07-29T06:02:45;3.50;;;2.55;;
13795;SDS011;40911;51.552;9.874;2023-07-29T06:05:07;3.88;;;2.85;;
13795;SDS011;40911;51.552;9.874;2023-07-29T06:07:30;3.95;;;2.95;;
13795;SDS011;40911;51.552;9.874;2023-07-29T06:09:53;6.78;;;3.00;;
13795;SDS011;40911;51.552;9.874;2023-07-29T06:12:15;3.38;;;3.08;;
13795;SDS011;40911;51.552;9.874;2023-07-29T06:14:37;3.55;;;3.00;;
13795;SDS011;40911;51.552;9.874;2023-07-29T06:16:58;3.72;;;3.15;;
13795;SDS011;40911;51.552;9.874;2023-07-29T06:19:21;5.38;;;3.10;;
13795;SDS011;40911;51.552;9.874;2023-07-29T06:21:42;4.78;;;2.85;;
13795;SDS011;40911;51.552;9.874;2023-07-29T06:24:05;3.83;;;3.35;;
13795;SDS011;40911;51.552;9.874;2023-07-29T06:26:27;6.05;;;2.92;;
13795;SDS011;40911;51.552;9.874;2023-07-29T06:28:49;3.85;;;3.10;;
13795;SDS011;40911;51.552;9.874;2023-07-29T06:31:10;3.20;;;2.95;;
13795;SDS011;40911;51.552;9.874;2023-07-29T06:33:32;3.40;;;3.10;;
13795;SDS011;40911;51.552;9.874;2023-07-29T06:35:55;3.10;;;2.80;;
13795;SDS011;40911;51.552;9.874;2023-07-29T06:38:17;3.47;;;3.17;;
13795;SDS011;40911;51.552;9.874;2023-07-29T06:40:43;3.67;;;3.10;;
13795;SDS011;40911;51.552;9.874;2023-07-29T06:43:04;4.45;;;2.60;;
13795;SDS011;40911;51.552;9.874;2023-07-29T06:45:26;3.83;;;2.80;;
13795;SDS011;40911;51.552;9.874;2023-07-29T06:47:48;3.15;;;2.95;;
13795;SDS011;40911;51.552;9.874;2023-07-29T06:50:10;5.05;;;3.00;;
13795;SDS011;40911;51.552;9.874;2023-07-29T06:52:33;3.17;;;2.83;;
13795;SDS011;40911;51.552;9.874;2023-07-29T06:54:56;4.82;;;3.10;;
13795;SDS011;40911;51.552;9.874;2023-07-29T06:57:20;5.30;;;2.80;;
13795;SDS011;40911;51.552;9.874;2023-07-29T06:59:41;4.47;;;2.90;;
13795;SDS011;40911;51.552;9.874;2023-07-29T07:02:03;4.20;;;2.92;;
13795;SDS011;40911;51.552;9.874;2023-07-29T07:04:26;2.90;;;2.63;;
13795;SDS011;40911;51.552;9.874;2023-07-29T07:06:47;3.17;;;2.55;;
13795;SDS011;40911;51.552;9.874;2023-07-29T07:09:09;3.30;;;3.00;;
13795;SDS011;40911;51.552;9.874;2023-07-29T07:11:31;3.30;;;3.10;;
13795;SDS011;40911;51.552;9.874;2023-07-29T07:13:54;4.53;;;3.20;;
13795;SDS011;40911;51.552;9.874;2023-07-29T07:16:16;3.53;;;2.88;;
13795;SDS011;40911;51.552;9.874;2023-07-29T07:18:37;5.82;;;3.30;;
13795;SDS011;40911;51.552;9.874;2023-07-29T07:20:59;3.55;;;3.25;;
13795;SDS011;40911;51.552;9.874;2023-07-29T07:23:21;3.17;;;2.97;;
13795;SDS011;40911;51.552;9.874;2023-07-29T07:25:42;3.42;;;3.13;;
13795;SDS011;40911;51.552;9.874;2023-07-29T07:28:04;4.35;;;3.05;;
13795;SDS011;40911;51.552;9.874;2023-07-29T07:30:27;3.25;;;2.95;;
13795;SDS011;40911;51.552;9.874;2023-07-29T07:32:49;3.40;;;3.10;;
13795;SDS011;40911;51.552;9.874;2023-07-29T07:35:11;3.38;;;3.08;;
13795;SDS011;40911;51.552;9.874;2023-07-29T07:37:34;5.20;;;3.28;;
13795;SDS011;40911;51.552;9.874;2023-07-29T07:39:55;3.75;;;3.10;;
13795;SDS011;40911;51.552;9.874;2023-07-29T07:42:17;3.10;;;2.70;;
13795;SDS011;40911;51.552;9.874;2023-07-29T07:44:39;3.42;;;3.20;;
13795;SDS011;40911;51.552;9.874;2023-07-29T07:47:02;4.28;;;3.25;;
13795;SDS011;40911;51.552;9.874;2023-07-29T07:49:24;3.58;;;3.28;;
13795;SDS011;40911;51.552;9.874;2023-07-29T07:51:46;4.18;;;3.20;;
13795;SDS011;40911;51.552;9.874;2023-07-29T07:54:08;3.30;;;3.00;;
13795;SDS011;40911;51.552;9.874;2023-07-29T07:56:29;4.53;;;2.92;;
13795;SDS011;40911;51.552;9.874;2023-07-29T07:58:51;3.47;;;3.17;;
13795;SDS011;40911;51.552;9.874;2023-07-29T08:01:13;3.85;;;3.13;;
13795;SDS011;40911;51.552;9.874;2023-07-29T08:03:37;4.47;;;3.28;;
13795;SDS011;40911;51.552;9.874;2023-07-29T08:06:00;2.90;;;2.70;;
13795;SDS011;40911;51.552;9.874;2023-07-29T08:08:22;3.67;;;3.22;;
13795;SDS011;40911;51.552;9.874;2023-07-29T08:10:44;3.83;;;2.88;;
13795;SDS011;40911;51.552;9.874;2023-07-29T08:13:06;3.33;;;3.05;;
13795;SDS011;40911;51.552;9.874;2023-07-29T08:15:27;2.88;;;2.67;;
13795;SDS011;40911;51.552;9.874;2023-07-29T08:17:49;3.10;;;2.75;;
13795;SDS011;40911;51.552;9.874;2023-07-29T08:20:13;3.47;;;2.80;;
13795;SDS011;40911;51.552;9.874;2023-07-29T08:22:34;4.95;;;2.90;;
13795;SDS011;40911;51.552;9.874;2023-07-29T08:24:56;2.83;;;2.63;;
13795;SDS011;40911;51.552;9.874;2023-07-29T08:27:18;3.45;;;2.60;;
13795;SDS011;40911;51.552;9.874;2023-07-29T08:29:40;6.63;;;3.00;;
13795;SDS011;40911;51.552;9.874;2023-07-29T08:32:02;3.63;;;2.80;;
13795;SDS011;40911;51.552;9.874;2023-07-29T08:34:24;3.08;;;2.85;;
13795;SDS011;40911;51.552;9.874;2023-07-29T08:36:47;3.15;;;2.80;;
13795;SDS011;40911;51.552;9.874;2023-07-29T08:39:09;3.20;;;2.90;;
13795;SDS011;40911;51.552;9.874;2023-07-29T08:41:32;2.60;;;2.40;;
13795;SDS011;40911;51.552;9.874;2023-07-29T08:43:59;2.83;;;2.60;;
13795;SDS011;40911;51.552;9.874;2023-07-29T08:46:26;3.38;;;2.72;;
13795;SDS011;40911;51.552;9.874;2023-07-29T08:48:50;2.58;;;2.38;;
13795;SDS011;40911;51.552;9.874;2023-07-29T08:51:13;2.97;;;2.40;;
13795;SDS011;40911;51.552;9.874;2023-07-29T08:53:38;2.95;;;2.42;;
13795;SDS011;40911;51.552;9.874;2023-07-29T08:56:00;4.60;;;2.35;;
13795;SDS011;40911;51.552;9.874;2023-07-29T08:58:23;2.10;;;2.00;;
13795;SDS011;40911;51.552;9.874;2023-07-29T09:00:45;2.45;;;2.20;;
13795;SDS011;40911;51.552;9.874;2023-07-29T09:03:08;2.40;;;2.10;;
13795;SDS011;40911;51.552;9.874;2023-07-29T09:05:30;5.35;;;2.67;;
13795;SDS011;40911;51.552;9.874;2023-07-29T09:07:52;2.78;;;2.47;;
13795;SDS011;40911;51.552;9.874;2023-07-29T09:10:17;2.70;;;2.17;;
13795;SDS011;40911;51.552;9.874;2023-07-29T09:12:43;2.42;;;2.22;;
13795;SDS011;40911;51.552;9.874;2023-07-29T09:15:05;3.17;;;2.50;;
13795;SDS011;40911;51.552;9.874;2023-07-29T09:17:30;3.25;;;2.25;;
13795;SDS011;40911;51.552;9.874;2023-07-29T09:19:52;2.50;;;2.30;;
13795;SDS011;40911;51.552;9.874;2023-07-29T09:22:17;2.65;;;2.45;;
13795;SDS011;40911;51.552;9.874;2023-07-29T09:24:40;2.92;;;2.45;;
13795;SDS011;40911;51.552;9.874;2023-07-29T09:27:03;2.92;;;2.42;;
13795;SDS011;40911;51.552;9.874;2023-07-29T09:29:28;2.10;;;1.92;;
13795;SDS011;40911;51.552;9.874;2023-07-29T09:31:50;2.92;;;2.40;;
13795;SDS011;40911;51.552;9.874;2023-07-29T09:34:11;2.30;;;2.10;;
13795;SDS011;40911;51.552;9.874;2023-07-29T09:36:36;2.42;;;2.22;;
13795;SDS011;40911;51.552;9.874;2023-07-29T09:38:59;1.85;;;1.75;;
13795;SDS011;40911;51.552;9.874;2023-07-29T09:41:22;2.92;;;1.88;;
13795;SDS011;40911;51.552;9.874;2023-07-29T09:43:45;1.83;;;1.73;;
13795;SDS011;40911;51.552;9.874;2023-07-29T09:46:07;1.70;;;1.60;;
13795;SDS011;40911;51.552;9.874;2023-07-29T09:48:32;1.98;;;1.77;;
13795;SDS011;40911;51.552;9.874;2023-07-29T09:50:54;1.50;;;1.40;;
13795;SDS011;40911;51.552;9.874;2023-07-29T09:53:16;1.60;;;1.50;;
13795;SDS011;40911;51.552;9.874;2023-07-29T09:55:38;1.45;;;1.35;;
13795;SDS011;40911;51.552;9.874;2023-07-29T09:58:00;1.83;;;1.20;;
13795;SDS011;40911;51.552;9.874;2023-07-29T10:00:28;2.40;;;1.50;;
13795;SDS011;40911;51.552;9.874;2023-07-29T10:02:50;1.75;;;1.60;;
13795;SDS011;40911;51.552;9.874;2023-07-29T10:05:13;1.70;;;1.60;;
13795;SDS011;40911;51.552;9.874;2023-07-29T10:10:52;2.47;;;1.52;;
13795;SDS011;40911;51.552;9.874;2023-07-29T10:13:16;1.85;;;1.55;;
13795;SDS011;40911;51.552;9.874;2023-07-29T10:15:49;2.85;;;1.60;;
13795;SDS011;40911;51.552;9.874;2023-07-29T10:20:38;2.17;;;1.60;;
13795;SDS011;40911;51.552;9.874;2023-07-29T10:23:04;2.50;;;1.50;;
13795;SDS011;40911;51.552;9.874;2023-07-29T10:25:30;1.60;;;1.45;;
13795;SDS011;40911;51.552;9.874;2023-07-29T10:28:01;1.58;;;1.48;;
13795;SDS011;40911;51.552;9.874;2023-07-29T10:30:28;1.83;;;1.70;;
13795;SDS011;40911;51.552;9.874;2023-07-29T10:32:51;1.80;;;1.67;;
13795;SDS011;40911;51.552;9.874;2023-07-29T10:35:14;1.98;;;1.88;;
13795;SDS011;40911;51.552;9.874;2023-07-29T10:37:36;2.70;;;2.05;;
13795;SDS011;40911;51.552;9.874;2023-07-29T10:39:59;2.05;;;1.90;;
13795;SDS011;40911;51.552;9.874;2023-07-29T10:42:21;3.35;;;2.10;;
13795;SDS011;40911;51.552;9.874;2023-07-29T10:44:46;2.25;;;1.90;;
13795;SDS011;40911;51.552;9.874;2023-07-29T10:47:12;2.70;;;1.90;;
13795;SDS011;40911;51.552;9.874;2023-07-29T10:49:36;2.40;;;1.67;;
13795;SDS011;40911;51.552;9.874;2023-07-29T10:51:58;2.40;;;1.80;;
13795;SDS011;40911;51.552;9.874;2023-07-29T10:54:20;3.65;;;2.00;;
13795;SDS011;40911;51.552;9.874;2023-07-29T10:56:43;2.13;;;1.92;;
13795;SDS011;40911;51.552;9.874;2023-07-29T11:01:56;2.22;;;1.90;;
13795;SDS011;40911;51.552;9.874;2023-07-29T11:04:22;3.97;;;2.45;;
13795;SDS011;40911;51.552;9.874;2023-07-29T11:09:51;2.25;;;2.05;;
13795;SDS011;40911;51.552;9.874;2023-07-29T11:15:00;2.53;;;1.85;;
13795;SDS011;40911;51.552;9.874;2023-07-29T11:17:25;2.00;;;1.80;;
13795;SDS011;40911;51.552;9.874;2023-07-29T11:19:48;2.28;;;2.05;;
13795;SDS011;40911;51.552;9.874;2023-07-29T11:22:11;3.70;;;2.10;;
13795;SDS011;40911;51.552;9.874;2023-07-29T11:24:35;2.42;;;2.03;;
13795;SDS011;40911;51.552;9.874;2023-07-29T11:26:57;13.27;;;3.95;;
13795;SDS011;40911;51.552;9.874;2023-07-29T11:29:19;2.25;;;2.05;;
13795;SDS011;40911;51.552;9.874;2023-07-29T11:31:40;2.38;;;2.17;;
13795;SDS011;40911;51.552;9.874;2023-07-29T11:34:06;3.03;;;2.00;;
13795;SDS011;40911;51.552;9.874;2023-07-29T11:36:28;2.10;;;1.90;;
13795;SDS011;40911;51.552;9.874;2023-07-29T11:38:50;2.78;;;2.38;;
13795;SDS011;40911;51.552;9.874;2023-07-29T11:41:19;2.10;;;1.90;;
13795;SDS011;40911;51.552;9.874;2023-07-29T11:43:41;3.15;;;1.95;;
13795;SDS011;40911;51.552;9.874;2023-07-29T11:46:04;2.50;;;2.30;;
13795;SDS011;40911;51.552;9.874;2023-07-29T11:48:26;3.53;;;1.95;;
13795;SDS011;40911;51.552;9.874;2023-07-29T11:50:49;2.30;;;2.10;;
13795;SDS011;40911;51.552;9.874;2023-07-29T11:53:11;3.25;;;1.90;;
13795;SDS011;40911;51.552;9.874;2023-07-29T11:55:33;2.95;;;2.22;;
13795;SDS011;40911;51.552;9.874;2023-07-29T11:57:56;2.40;;;2.20;;
13795;SDS011;40911;51.552;9.874;2023-07-29T12:00:18;2.20;;;2.00;;
13795;SDS011;40911;51.552;9.874;2023-07-29T12:02:44;3.13;;;1.70;;
13795;SDS011;40911;51.552;9.874;2023-07-29T12:05:07;2.33;;;2.13;;
13795;SDS011;40911;51.552;9.874;2023-07-29T12:07:30;2.75;;;2.00;;
13795;SDS011;40911;51.552;9.874;2023-07-29T12:09:53;2.10;;;1.90;;
13795;SDS011;40911;51.552;9.874;2023-07-29T12:12:16;1.90;;;1.80;;
13795;SDS011;40911;51.552;9.874;2023-07-29T12:14:43;4.72;;;1.80;;
13795;SDS011;40911;51.552;9.874;2023-07-29T12:17:06;2.00;;;1.67;;
13795;SDS011;40911;51.552;9.874;2023-07-29T12:19:31;1.98;;;1.88;;
13795;SDS011;40911;51.552;9.874;2023-07-29T12:21:54;3.42;;;1.90;;
13795;SDS011;40911;51.552;9.874;2023-07-29T12:24:16;2.35;;;1.50;;
13795;SDS011;40911;51.552;9.874;2023-07-29T12:26:38;3.03;;;1.70;;
13795;SDS011;40911;51.552;9.874;2023-07-29T12:29:10;1.85;;;1.55;;
13795;SDS011;40911;51.552;9.874;2023-07-29T12:31:37;2.97;;;1.63;;
13795;SDS011;40911;51.552;9.874;2023-07-29T12:33:58;2.45;;;1.70;;
13795;SDS011;40911;51.552;9.874;2023-07-29T12:36:21;1.48;;;1.38;;
13795;SDS011;40911;51.552;9.874;2023-07-29T12:38:43;4.80;;;1.63;;
13795;SDS011;40911;51.552;9.874;2023-07-29T12:41:06;1.75;;;1.50;;
13795;SDS011;40911;51.552;9.874;2023-07-29T12:43:28;1.58;;;1.30;;
13795;SDS011;40911;51.552;9.874;2023-07-29T12:45:50;3.67;;;1.52;;
13795;SDS011;40911;51.552;9.874;2023-07-29T12:48:13;1.58;;;1.45;;
13795;SDS011;40911;51.552;9.874;2023-07-29T12:50:35;1.70;;;1.27;;
13795;SDS011;40911;51.552;9.874;2023-07-29T12:52:57;1.38;;;1.27;;
13795;SDS011;40911;51.552;9.874;2023-07-29T12:58:14;1.38;;;1.23;;
13795;SDS011;40911;51.552;9.874;2023-07-29T13:00:36;2.20;;;1.10;;
13795;SDS011;40911;51.552;9.874;2023-07-29T13:02:58;1.30;;;0.93;;
13795;SDS011;40911;51.552;9.874;2023-07-29T13:05:22;1.38;;;1.00;;
13795;SDS011;40911;51.552;9.874;2023-07-29T13:07:43;1.10;;;1.00;;
13795;SDS011;40911;51.552;9.874;2023-07-29T13:10:05;1.00;;;1.00;;
13795;SDS011;40911;51.552;9.874;2023-07-29T13:12:27;1.17;;;1.08;;
13795;SDS011;40911;51.552;9.874;2023-07-29T13:14:49;1.98;;;1.00;;
13795;SDS011;40911;51.552;9.874;2023-07-29T13:17:11;1.83;;;0.88;;
13795;SDS011;40911;51.552;9.874;2023-07-29T13:19:33;1.80;;;1.00;;
13795;SDS011;40911;51.552;9.874;2023-07-29T13:21:56;1.58;;;0.93;;
13795;SDS011;40911;51.552;9.874;2023-07-29T13:24:18;1.45;;;1.00;;
13795;SDS011;40911;51.552;9.874;2023-07-29T13:26:42;1.15;;;1.02;;
13795;SDS011;40911;51.552;9.874;2023-07-29T13:29:04;1.35;;;1.00;;
13795;SDS011;40911;51.552;9.874;2023-07-29T13:31:25;1.95;;;1.10;;
13795;SDS011;40911;51.552;9.874;2023-07-29T13:33:47;3.63;;;1.00;;
13795;SDS011;40911;51.552;9.874;2023-07-29T13:36:09;3.72;;;1.20;;
13795;SDS011;40911;51.552;9.874;2023-07-29T13:38:33;2.72;;;1.10;;
13795;SDS011;40911;51.552;9.874;2023-07-29T13:40:55;1.63;;;1.05;;
13795;SDS011;40911;51.552;9.874;2023-07-29T13:43:17;0.93;;;0.85;;
13795;SDS011;40911;51.552;9.874;2023-07-29T13:45:39;1.50;;;1.00;;
13795;SDS011;40911;51.552;9.874;2023-07-29T13:48:01;1.17;;;1.00;;
13795;SDS011;40911;51.552;9.874;2023-07-29T13:50:23;2.05;;;0.98;;
13795;SDS011;40911;51.552;9.874;2023-07-29T13:52:44;1.17;;;1.00;;
13795;SDS011;40911;51.552;9.874;2023-07-29T13:55:08;2.33;;;1.02;;
13795;SDS011;40911;51.552;9.874;2023-07-29T13:57:30;2.10;;;1.02;;
13795;SDS011;40911;51.552;9.874;2023-07-29T13:59:52;1.73;;;1.10;;
13795;SDS011;40911;51.552;9.874;2023-07-29T14:02:14;1.25;;;1.10;;
13795;SDS011;40911;51.552;9.874;2023-07-29T14:04:36;1.20;;;1.10;;
13795;SDS011;40911;51.552;9.874;2023-07-29T14:06:58;2.22;;;1.23;;
13795;SDS011;40911;51.552;9.874;2023-07-29T14:09:20;1.40;;;1.30;;
13795;SDS011;40911;51.552;9.874;2023-07-29T14:11:43;1.50;;;1.20;;
13795;SDS011;40911;51.552;9.874;2023-07-29T14:14:05;1.08;;;0.90;;
13795;SDS011;40911;51.552;9.874;2023-07-29T14:16:28;1.40;;;1.30;;
13795;SDS011;40911;51.552;9.874;2023-07-29T14:18:50;1.20;;;1.08;;
13795;SDS011;40911;51.552;9.874;2023-07-29T14:21:12;2.15;;;1.20;;
13795;SDS011;40911;51.552;9.874;2023-07-29T14:23:33;1.40;;;1.30;;
13795;SDS011;40911;51.552;9.874;2023-07-29T14:25:55;1.30;;;1.20;;
13795;SDS011;40911;51.552;9.874;2023-07-29T14:28:19;1.20;;;1.05;;
13795;SDS011;40911;51.552;9.874;2023-07-29T14:30:41;1.67;;;1.00;;
13795;SDS011;40911;51.552;9.874;2023-07-29T14:33:03;1.20;;;1.00;;
13795;SDS011;40911;51.552;9.874;2023-07-29T14:35:25;1.20;;;1.10;;
13795;SDS011;40911;51.552;9.874;2023-07-29T14:37:46;1.30;;;1.10;;
13795;SDS011;40911;51.552;9.874;2023-07-29T14:40:08;3.78;;;1.20;;
13795;SDS011;40911;51.552;9.874;2023-07-29T14:42:30;1.92;;;1.13;;
13795;SDS011;40911;51.552;9.874;2023-07-29T14:44:53;1.15;;;1.05;;
13795;SDS011;40911;51.552;9.874;2023-07-29T14:47:15;1.23;;;1.13;;
13795;SDS011;40911;51.552;9.874;2023-07-29T14:49:37;1.33;;;1.23;;
13795;SDS011;40911;51.552;9.874;2023-07-29T14:51:59;1.10;;;1.00;;
13795;SDS011;40911;51.552;9.874;2023-07-29T14:54:21;3.72;;;1.33;;
13795;SDS011;40911;51.552;9.874;2023-07-29T14:56:43;1.58;;;1.30;;
13795;SDS011;40911;51.552;9.874;2023-07-29T14:59:03;1.85;;;1.35;;
13795;SDS011;40911;51.552;9.874;2023-07-29T15:01:27;1.23;;;1.10;;
13795;SDS011;40911;51.552;9.874;2023-07-29T15:03:49;1.58;;;1.20;;